Airport Information

KPWT - Bremerton National Airport

KPWT 251056Z AUTO 05007KT 10SM CLR 06/04 A3005 RMK AO2 SLP198 T00610044


  • General Information

  • Coordinates: N 47°29'24"/ W 122°45'53"
  • Location: N/A
  • Surveyed Elevation: 444 MSL

Operations

Flow Name Active Runways Conditions

Green background denotes normal operations.


Common Frequencies

Callsign Frequency Position Name

More at the Document Center


Charts